GAP2147 RPLL-RPVI
Flight info
| Callsign | GAP2147 |
|---|---|
| Flight time | N/A |
| Altitude | 33000 |
| Route | RDVXVERDE/06 VERDE A461 SAJ W3 BEDER BEDER1N |
| Aircraft | A321/M-SDE3FGHIRWY/LB1 |
Departure
| Time | N/A |
|---|---|
| Airport | Ninoy Aquino International Airport (RPLL) |
Arrival
| Time | 2026-05-08 15:04 |
|---|---|
| Airport | Iloilo International Airport (RPVI) |
| Time | Latitude | Longitude | Altitude | Speed | Heading |
|---|---|---|---|---|---|
| 2026-05-08 15:01 | 10.72851 | 122.45486 | 2104 ft | 137 kts | 24° |
| 2026-05-08 15:01 | 10.73741 | 122.45817 | 1928 ft | 135 kts | 24° |
| 2026-05-08 15:01 | 10.74632 | 122.46149 | 1745 ft | 135 kts | 23° |
| 2026-05-08 15:02 | 10.75510 | 122.46472 | 1577 ft | 134 kts | 23° |
| 2026-05-08 15:02 | 10.76100 | 122.46690 | 1453 ft | 134 kts | 23° |
| 2026-05-08 15:02 | 10.77268 | 122.47122 | 1216 ft | 133 kts | 23° |
| 2026-05-08 15:02 | 10.78149 | 122.47445 | 1036 ft | 133 kts | 22° |
| 2026-05-08 15:03 | 10.79024 | 122.47764 | 853 ft | 133 kts | 21° |
| 2026-05-08 15:03 | 10.79899 | 122.48066 | 698 ft | 132 kts | 22° |
| 2026-05-08 15:03 | 10.80771 | 122.48397 | 527 ft | 132 kts | 24° |
| 2026-05-08 15:03 | 10.81630 | 122.48717 | 348 ft | 132 kts | 21° |
| 2026-05-08 15:04 | 10.82492 | 122.49036 | 178 ft | 128 kts | 22° |
| 2026-05-08 15:04 | 10.83156 | 122.49283 | 176 ft | 61 kts | 21° |
| 2026-05-08 15:04 | 10.83341 | 122.49352 | 176 ft | 5 kts | 18° |
| 2026-05-08 15:04 | 10.83345 | 122.49354 | 176 ft | 0 kts | 18° |
| 2026-05-08 15:05 | 10.83351 | 122.49356 | 176 ft | 1 kts | 18° |
| 2026-05-08 15:06 | 10.83365 | 122.49361 | 176 ft | 2 kts | 19° |
| 2026-05-08 15:06 | 10.83386 | 122.49368 | 176 ft | 3 kts | 19° |
| 2026-05-08 15:06 | 10.83415 | 122.49379 | 176 ft | 4 kts | 20° |
| 2026-05-08 15:06 | 10.83451 | 122.49392 | 176 ft | 6 kts | 20° |
| 2026-05-08 15:07 | 10.83494 | 122.49407 | 176 ft | 7 kts | 20° |
| 2026-05-08 15:07 | 10.83541 | 122.49429 | 176 ft | 7 kts | 40° |
| 2026-05-08 15:07 | 10.83555 | 122.49483 | 176 ft | 8 kts | 103° |
| 2026-05-08 15:07 | 10.83534 | 122.49546 | 176 ft | 9 kts | 110° |
| 2026-05-08 15:08 | 10.83508 | 122.49615 | 175 ft | 10 kts | 111° |
| 2026-05-08 15:08 | 10.83504 | 122.49625 | 175 ft | 0 kts | 112° |